Time;durP1;ratioP1;P1;durP2;ratioP2;P2;SDS_P1;SDS_P2;PMS_P1;PMS_P2;Temp;Humidity;BMP_temperature;BMP_pressure;BME280_temperature;BME280_humidity;BME280_pressure;Samples;Min_cycle;Max_cycle;Signal;HPM_P1;HPM_P2
2022/04/26 03:36:06;;;;;;;;;;;18.70;54.70;;;;;;5007892;28;19964;-70
2022/04/26 03:38:32;;;;;;;;;;;18.70;54.70;;;;;;5006816;28;20000;-68
2022/04/26 03:40:57;;;;;;;;;;;18.70;54.70;;;;;;5007814;28;19971;-70
2022/04/26 03:43:23;;;;;;;;;;;18.60;54.70;;;;;;4999618;28;19926;-70
2022/04/26 03:45:48;;;;;;;;;;;18.70;54.70;;;;;;5008650;28;19921;-69
2022/04/26 03:48:14;;;;;;;;;;;18.70;54.70;;;;;;5007306;28;19910;-69
2022/04/26 03:50:39;;;;;;;;;;;18.60;54.60;;;;;;5007370;28;19916;-71
2022/04/26 03:53:05;;;;;;;;;;;18.60;54.60;;;;;;5007056;28;20338;-69
2022/04/26 03:55:30;;;;;;;;;;;18.60;54.60;;;;;;5007806;28;19909;-71
2022/04/26 03:57:57;;;;;;;;;;;18.60;54.60;;;;;;5006078;28;19909;-69
2022/04/26 04:00:23;;;;;;;;;;;18.60;54.60;;;;;;5006744;28;19917;-69
2022/04/26 04:02:48;;;;;;;;;;;18.70;54.60;;;;;;5005771;28;19917;-70
2022/04/26 04:05:14;;;;;;;;;;;18.60;54.50;;;;;;5007130;28;19913;-71
2022/04/26 04:07:39;;;;;;;;;;;18.60;54.50;;;;;;4990398;28;19921;-69
2022/04/26 04:10:05;;;;;;;;;;;18.60;54.50;;;;;;5007806;28;20271;-70
2022/04/26 04:12:30;;;;;;;;;;;18.60;54.50;;;;;;5007806;28;19921;-69
2022/04/26 04:14:56;;;;;;;;;;;18.60;54.50;;;;;;4989718;28;19909;-69
2022/04/26 04:17:21;;;;;;;;;;;18.60;54.50;;;;;;4973052;28;19921;-69
2022/04/26 04:19:47;;;;;;;;;;;18.60;54.50;;;;;;5007074;28;20297;-70
2022/04/26 04:22:14;;;;;;;;;;;18.60;54.50;;;;;;5005896;28;20476;-70
2022/04/26 04:24:39;;;;;;;;;;;18.60;54.50;;;;;;4977829;28;19972;-70
2022/04/26 04:27:05;;;;;;;;;;;18.60;54.60;;;;;;5006172;28;20323;-70
2022/04/26 04:29:30;;;;;;;;;;;18.60;54.60;;;;;;5006657;28;20000;-70
2022/04/26 04:31:56;;;;;;;;;;;18.60;54.80;;;;;;5006501;28;19976;-69
2022/04/26 04:34:22;;;;;;;;;;;18.60;54.90;;;;;;5005901;28;20481;-69
2022/04/26 04:36:48;;;;;;;;;;;18.60;54.80;;;;;;5006312;28;19914;-71
2022/04/26 04:39:19;;;;;;;;;;;18.60;54.70;;;;;;5006434;28;19920;-69
2022/04/26 04:41:45;;;;;;;;;;;18.60;54.80;;;;;;5006331;28;19968;-70
2022/04/26 04:44:11;;;;;;;;;;;18.60;55.20;;;;;;5006313;28;19941;-68
2022/04/26 04:46:36;;;;;;;;;;;18.70;55.90;;;;;;5006392;28;19940;-70
2022/04/26 04:49:02;;;;;;;;;;;18.90;55.80;;;;;;5005948;28;19909;-70
2022/04/26 04:51:27;;;;;;;;;;;18.90;55.40;;;;;;5006193;28;20547;-69
2022/04/26 04:53:52;;;;;;;;;;;19.00;55.20;;;;;;5001130;28;19991;-68
2022/04/26 04:56:18;;;;;;;;;;;19.10;55.00;;;;;;5005122;28;19913;-72
2022/04/26 04:58:43;;;;;;;;;;;19.10;54.80;;;;;;5004878;28;19914;-70
2022/04/26 05:01:09;;;;;;;;;;;19.20;54.70;;;;;;5006270;28;20074;-65
2022/04/26 05:03:34;;;;;;;;;;;19.30;54.60;;;;;;5003150;28;19952;-70
2022/04/26 05:06:00;;;;;;;;;;;19.30;54.60;;;;;;4988224;28;19910;-69
2022/04/26 05:08:25;;;;;;;;;;;19.30;54.60;;;;;;5004949;28;19936;-71
2022/04/26 05:10:51;;;;;;;;;;;19.30;54.60;;;;;;5004149;28;19939;-71
2022/04/26 05:13:16;;;;;;;;;;;19.30;54.60;;;;;;5004774;28;19949;-69
2022/04/26 05:15:44;;;;;;;;;;;19.30;54.90;;;;;;5005604;28;19914;-72
2022/04/26 05:18:11;;;;;;;;;;;19.30;54.90;;;;;;4971964;28;19910;-72
2022/04/26 05:20:37;;;;;;;;;;;19.30;54.90;;;;;;5005078;28;19928;-69
2022/04/26 05:25:47;;;;;;;;;;;19.40;55.90;;;;;;5001967;28;19921;-70
2022/04/26 05:28:12;;;;;;;;;;;19.50;56.50;;;;;;5002808;28;19913;-71
2022/04/26 05:30:38;;;;;;;;;;;19.50;57.00;;;;;;5003132;28;19926;-70
2022/04/26 05:33:03;;;;;;;;;;;19.40;56.90;;;;;;5002282;28;19910;-69
2022/04/26 05:35:29;;;;;;;;;;;19.30;56.60;;;;;;4993868;28;20372;-70
2022/04/26 05:37:54;;;;;;;;;;;19.40;57.20;;;;;;5015379;28;19913;-70
2022/04/26 05:40:20;;;;;;;;;;;19.40;57.40;;;;;;5014918;28;19913;-69
2022/04/26 05:42:45;;;;;;;;;;;19.40;57.30;;;;;;5005550;28;19922;-71
2022/04/26 05:45:11;;;;;;;;;;;19.30;57.30;;;;;;5001106;28;19964;-67
2022/04/26 05:47:42;;;;;;;;;;;19.40;57.60;;;;;;5006965;28;19922;-71
2022/04/26 05:50:11;;;;;;;;;;;19.30;57.50;;;;;;4992084;28;19956;-69
2022/04/26 05:52:36;;;;;;;;;;;19.30;57.60;;;;;;5005138;28;19919;-71
2022/04/26 05:55:04;;;;;;;;;;;19.30;57.30;;;;;;5006441;28;19910;-69
2022/04/26 05:57:30;;;;;;;;;;;19.30;57.40;;;;;;5004873;28;19948;-71
2022/04/26 05:59:55;;;;;;;;;;;19.30;57.00;;;;;;5006307;28;19914;-70
2022/04/26 06:02:21;;;;;;;;;;;19.20;57.20;;;;;;4988560;28;19924;-70
2022/04/26 06:04:46;;;;;;;;;;;19.20;57.00;;;;;;5003243;28;19963;-69
2022/04/26 06:07:11;;;;;;;;;;;19.20;56.80;;;;;;5004236;28;19920;-71
2022/04/26 06:09:37;;;;;;;;;;;19.20;56.90;;;;;;5003117;28;20583;-69
2022/04/26 06:12:04;;;;;;;;;;;19.30;57.10;;;;;;5002776;28;19975;-68
2022/04/26 06:14:29;;;;;;;;;;;19.20;57.30;;;;;;5003288;28;19922;-69
2022/04/26 06:16:54;;;;;;;;;;;19.20;57.20;;;;;;5002626;28;20619;-71
2022/04/26 06:19:20;;;;;;;;;;;19.20;57.40;;;;;;5002420;28;19964;-70
2022/04/26 06:21:45;;;;;;;;;;;19.20;57.10;;;;;;4997503;28;19913;-68
2022/04/26 06:24:11;;;;;;;;;;;19.20;57.30;;;;;;5014548;28;19913;-69
2022/04/26 06:26:36;;;;;;;;;;;19.20;57.60;;;;;;5004771;28;19917;-69
2022/04/26 06:29:02;;;;;;;;;;;19.10;57.50;;;;;;5003496;28;19917;-69
2022/04/26 06:31:27;;;;;;;;;;;19.10;57.20;;;;;;5004329;28;19916;-69
2022/04/26 06:33:52;;;;;;;;;;;19.10;57.50;;;;;;5004165;28;20327;-69
2022/04/26 06:36:18;;;;;;;;;;;19.10;57.30;;;;;;5003894;28;19953;-69
2022/04/26 06:38:43;;;;;;;;;;;19.10;57.30;;;;;;4985887;28;19913;-72
2022/04/26 06:41:09;;;;;;;;;;;19.10;57.50;;;;;;4992288;28;20491;-69
2022/04/26 06:43:34;;;;;;;;;;;19.10;57.60;;;;;;5003667;28;20016;-73
2022/04/26 06:46:01;;;;;;;;;;;19.10;57.40;;;;;;5004115;28;19917;-71
2022/04/26 06:48:26;;;;;;;;;;;19.10;57.40;;;;;;4985594;28;19918;-70
2022/04/26 06:50:53;;;;;;;;;;;19.10;57.30;;;;;;4981492;28;19919;-70
2022/04/26 06:53:19;;;;;;;;;;;19.10;57.20;;;;;;5013688;28;19921;-71
2022/04/26 06:55:44;;;;;;;;;;;19.00;57.20;;;;;;5005370;28;19909;-70
2022/04/26 06:58:10;;;;;;;;;;;19.00;57.40;;;;;;5004237;28;19913;-69
2022/04/26 07:00:35;;;;;;;;;;;19.00;57.30;;;;;;5003833;28;19913;-70
2022/04/26 07:03:01;;;;;;;;;;;19.00;57.30;;;;;;5003840;28;20295;-69
2022/04/26 07:05:26;;;;;;;;;;;19.00;57.30;;;;;;5004237;28;20392;-68
2022/04/26 07:07:54;;;;;;;;;;;19.00;57.10;;;;;;4986010;28;19910;-68
2022/04/26 07:10:21;;;;;;;;;;;19.00;57.20;;;;;;4985818;28;19996;-68
2022/04/26 07:12:47;;;;;;;;;;;19.00;57.20;;;;;;5000910;28;19945;-68
2022/04/26 07:15:12;;;;;;;;;;;19.00;57.30;;;;;;5002996;28;20349;-68
2022/04/26 07:17:39;;;;;;;;;;;19.00;57.20;;;;;;5003853;28;19955;-70
2022/04/26 07:20:04;;;;;;;;;;;19.00;57.20;;;;;;4985627;28;19920;-69
2022/04/26 07:22:31;;;;;;;;;;;18.90;57.20;;;;;;4997302;28;19968;-71
2022/04/26 07:24:57;;;;;;;;;;;19.00;57.30;;;;;;5003319;28;19925;-69
2022/04/26 07:27:22;;;;;;;;;;;19.00;57.30;;;;;;4993116;28;19910;-70
2022/04/26 07:29:48;;;;;;;;;;;19.00;57.40;;;;;;5001812;28;19938;-69
2022/04/26 07:32:14;;;;;;;;;;;19.00;57.30;;;;;;5003781;28;19914;-69
2022/04/26 07:34:39;;;;;;;;;;;19.00;57.30;;;;;;5006085;28;19914;-68
2022/04/26 07:37:05;;;;;;;;;;;18.90;57.20;;;;;;5007424;28;19913;-70
2022/04/26 07:39:30;;;;;;;;;;;18.90;57.20;;;;;;5006221;28;19916;-71
2022/04/26 07:41:56;;;;;;;;;;;18.90;57.30;;;;;;4992918;28;19913;-68
2022/04/26 07:44:21;;;;;;;;;;;18.90;57.20;;;;;;5004951;28;19920;-70
2022/04/26 07:46:47;;;;;;;;;;;18.90;57.20;;;;;;5006879;28;19914;-70
2022/04/26 07:49:13;;;;;;;;;;;18.90;57.20;;;;;;5005474;28;19937;-71
2022/04/26 07:51:38;;;;;;;;;;;18.90;57.20;;;;;;5007399;28;19910;-69
2022/04/26 07:54:05;;;;;;;;;;;18.90;57.20;;;;;;4998949;28;20532;-70
2022/04/26 07:56:31;;;;;;;;;;;18.90;57.20;;;;;;5006197;28;19988;-70
2022/04/26 07:58:58;;;;;;;;;;;18.90;57.20;;;;;;5005450;28;19914;-69
2022/04/26 08:01:24;;;;;;;;;;;18.90;57.20;;;;;;4989511;28;19913;-69
2022/04/26 08:03:49;;;;;;;;;;;18.90;57.20;;;;;;5005332;28;19960;-69
2022/04/26 08:06:15;;;;;;;;;;;18.90;57.20;;;;;;5008012;28;19918;-70
2022/04/26 08:08:40;;;;;;;;;;;18.90;57.10;;;;;;4990411;28;19920;-69
2022/04/26 08:11:06;;;;;;;;;;;18.90;57.10;;;;;;4989182;28;20283;-68
2022/04/26 08:13:32;;;;;;;;;;;18.90;57.20;;;;;;5007072;28;20313;-71
2022/04/26 08:15:58;;;;;;;;;;;18.90;57.10;;;;;;5005958;28;19920;-68
2022/04/26 08:18:23;;;;;;;;;;;18.90;57.10;;;;;;5005888;28;19913;-71
2022/04/26 08:20:49;;;;;;;;;;;18.90;57.20;;;;;;5006667;28;20284;-71
2022/04/26 08:23:14;;;;;;;;;;;18.90;57.10;;;;;;5007578;28;19995;-70
2022/04/26 08:28:28;;;;;;;;;;;18.80;57.10;;;;;;5007935;28;20422;-71
2022/04/26 08:30:55;;;;;;;;;;;18.80;57.00;;;;;;5007420;28;19941;-70
2022/04/26 08:33:20;;;;;;;;;;;18.90;57.10;;;;;;5005653;28;19949;-70
2022/04/26 08:35:45;;;;;;;;;;;18.80;57.00;;;;;;5007143;28;20431;-70
2022/04/26 08:38:11;;;;;;;;;;;18.80;57.00;;;;;;5006770;28;19975;-69
2022/04/26 08:40:36;;;;;;;;;;;18.80;57.00;;;;;;5006912;28;19917;-71
2022/04/26 08:43:02;;;;;;;;;;;18.80;57.00;;;;;;5005952;28;19921;-69
2022/04/26 08:45:27;;;;;;;;;;;18.80;57.00;;;;;;5006107;28;19952;-67
2022/04/26 08:53:22;;;;;;;;;;;18.80;57.00;;;;;;5005684;28;20387;-65
2022/04/26 08:55:48;;;;;;;;;;;18.80;57.00;;;;;;4988363;28;19914;-70
2022/04/26 08:58:14;;;;;;;;;;;18.80;57.00;;;;;;5005782;28;19963;-69
2022/04/26 09:00:40;;;;;;;;;;;18.80;57.00;;;;;;5005921;28;19913;-70
2022/04/26 09:03:07;;;;;;;;;;;18.80;57.00;;;;;;5001566;28;19917;-68
2022/04/26 09:05:33;;;;;;;;;;;18.80;56.90;;;;;;4990417;28;19916;-68
2022/04/26 09:07:58;;;;;;;;;;;18.80;56.90;;;;;;4987073;28;19921;-69
2022/04/26 09:10:24;;;;;;;;;;;18.80;56.90;;;;;;5004664;28;19937;-71
2022/04/26 09:13:01;;;;;;;;;;;18.80;56.90;;;;;;5005426;28;19917;-65
2022/04/26 09:15:33;;;;;;;;;;;18.80;56.90;;;;;;5005175;28;19931;-68
2022/04/26 09:18:12;;;;;;;;;;;18.80;56.90;;;;;;5005224;28;19910;-70
2022/04/26 09:20:37;;;;;;;;;;;18.80;56.90;;;;;;5004564;28;19921;-71
2022/04/26 09:23:03;;;;;;;;;;;18.80;56.90;;;;;;5004385;28;20339;-69
2022/04/26 09:25:28;;;;;;;;;;;18.80;57.50;;;;;;5004234;28;19944;-69
2022/04/26 09:27:57;;;;;;;;;;;18.80;56.90;;;;;;5004760;28;19909;-72
2022/04/26 09:30:26;;;;;;;;;;;18.80;56.80;;;;;;4986129;28;20391;-69
2022/04/26 09:32:51;;;;;;;;;;;18.80;56.90;;;;;;4986820;28;19914;-70
2022/04/26 09:35:31;;;;;;;;;;;18.80;56.90;;;;;;5002665;28;20313;-69
2022/04/26 09:37:57;;;;;;;;;;;18.80;56.90;;;;;;5003915;28;19917;-69
2022/04/26 09:40:28;;;;;;;;;;;18.80;56.80;;;;;;4986983;28;19916;-70
2022/04/26 09:42:54;;;;;;;;;;;18.80;56.90;;;;;;4987044;28;19956;-71
2022/04/26 09:45:20;;;;;;;;;;;18.80;56.80;;;;;;5002606;28;19910;-71
2022/04/26 09:47:46;;;;;;;;;;;18.80;56.80;;;;;;5005524;28;20427;-69
2022/04/26 09:50:14;;;;;;;;;;;18.80;56.80;;;;;;5004351;28;19917;-69
2022/04/26 09:52:40;;;;;;;;;;;18.80;56.80;;;;;;4987093;28;19913;-71
2022/04/26 09:55:05;;;;;;;;;;;18.90;56.90;;;;;;4998601;28;20543;-69
2022/04/26 09:57:31;;;;;;;;;;;18.90;56.80;;;;;;5004596;28;19949;-68
2022/04/26 09:59:57;;;;;;;;;;;18.80;56.80;;;;;;5003726;28;20011;-71
2022/04/26 10:02:22;;;;;;;;;;;18.80;56.90;;;;;;4987048;28;20316;-70
2022/04/26 10:04:49;;;;;;;;;;;18.80;56.80;;;;;;4994502;28;19987;-70
2022/04/26 10:07:14;;;;;;;;;;;18.90;56.90;;;;;;5003600;28;19921;-70
2022/04/26 10:09:40;;;;;;;;;;;18.80;56.80;;;;;;4996868;28;20574;-70
2022/04/26 10:12:05;;;;;;;;;;;18.80;56.80;;;;;;5003904;28;19917;-69
2022/04/26 10:14:31;;;;;;;;;;;18.90;56.80;;;;;;5004034;28;20011;-72
2022/04/26 10:16:56;;;;;;;;;;;18.90;56.70;;;;;;5004780;28;19936;-68
2022/04/26 10:19:34;;;;;;;;;;;18.90;56.70;;;;;;5003955;28;19937;-69
2022/04/26 10:22:00;;;;;;;;;;;18.90;56.70;;;;;;4986498;28;19918;-69
2022/04/26 10:24:25;;;;;;;;;;;18.90;56.70;;;;;;4988856;28;19913;-71
2022/04/26 10:26:51;;;;;;;;;;;18.90;56.70;;;;;;5004642;28;20555;-70
2022/04/26 10:29:20;;;;;;;;;;;18.90;56.70;;;;;;5002212;28;19953;-70
2022/04/26 10:31:47;;;;;;;;;;;18.90;56.60;;;;;;5004460;28;19914;-72
2022/04/26 10:34:29;;;;;;;;;;;18.90;56.60;;;;;;5004870;28;19917;-70
2022/04/26 10:37:06;;;;;;;;;;;18.90;56.60;;;;;;5003637;28;20587;-69
2022/04/26 10:39:39;;;;;;;;;;;18.90;56.50;;;;;;5003542;28;19917;-69
2022/04/26 10:42:07;;;;;;;;;;;18.90;56.50;;;;;;4986611;28;19918;-70
2022/04/26 10:44:37;;;;;;;;;;;18.90;56.60;;;;;;5002697;28;19948;-70
2022/04/26 10:47:02;;;;;;;;;;;18.90;56.60;;;;;;5002479;28;19928;-71
2022/04/26 10:49:40;;;;;;;;;;;18.90;56.60;;;;;;5003847;28;19910;-69
2022/04/26 10:52:09;;;;;;;;;;;18.90;56.60;;;;;;5003526;28;19944;-69
2022/04/26 10:54:55;;;;;;;;;;;18.90;56.70;;;;;;5003649;28;20032;-70
2022/04/26 10:57:28;;;;;;;;;;;18.80;56.70;;;;;;5003796;28;20280;-70
2022/04/26 10:59:56;;;;;;;;;;;18.90;56.60;;;;;;5001176;28;19909;-69
2022/04/26 11:02:23;;;;;;;;;;;18.90;56.60;;;;;;5004072;28;19913;-68
2022/04/26 11:05:16;;;;;;;;;;;18.90;56.60;;;;;;4986240;28;19917;-69
2022/04/26 11:07:51;;;;;;;;;;;18.80;56.60;;;;;;4996181;28;20453;-70
2022/04/26 11:10:18;;;;;;;;;;;18.90;56.60;;;;;;5002892;28;19919;-70
2022/04/26 11:12:43;;;;;;;;;;;18.90;56.60;;;;;;5006882;28;19921;-71
2022/04/26 11:15:13;;;;;;;;;;;18.90;56.60;;;;;;5007979;28;19940;-71
2022/04/26 11:17:39;;;;;;;;;;;18.90;56.60;;;;;;4990488;28;19925;-69
2022/04/26 11:20:06;;;;;;;;;;;18.90;56.50;;;;;;5005552;28;20008;-69
2022/04/26 11:22:31;;;;;;;;;;;18.90;56.60;;;;;;4989602;28;19963;-71
2022/04/26 11:28:06;;;;;;;;;;;18.90;56.60;;;;;;5007339;28;19920;-70
2022/04/26 11:30:31;;;;;;;;;;;18.90;56.60;;;;;;5007305;28;19996;-70
2022/04/26 11:33:00;;;;;;;;;;;18.90;56.60;;;;;;5007042;28;19992;-69
2022/04/26 11:35:26;;;;;;;;;;;18.90;56.60;;;;;;4990432;28;19928;-69
2022/04/26 11:37:55;;;;;;;;;;;18.90;56.60;;;;;;5007320;28;19910;-69
2022/04/26 11:40:21;;;;;;;;;;;18.80;56.60;;;;;;5006200;28;19916;-68
2022/04/26 11:42:47;;;;;;;;;;;18.80;56.60;;;;;;5006491;28;19953;-69
2022/04/26 11:45:12;;;;;;;;;;;18.80;56.60;;;;;;5008298;28;19917;-68
2022/04/26 11:47:45;;;;;;;;;;;18.80;56.50;;;;;;5007349;28;19914;-70
2022/04/26 11:50:11;;;;;;;;;;;18.80;56.60;;;;;;5005392;28;19914;-70
2022/04/26 11:52:36;;;;;;;;;;;18.80;56.50;;;;;;4989397;28;20353;-69
2022/04/26 11:55:02;;;;;;;;;;;18.80;56.50;;;;;;4989557;28;19920;-71
2022/04/26 11:57:28;;;;;;;;;;;18.80;56.60;;;;;;5007087;28;19952;-69
2022/04/26 11:59:53;;;;;;;;;;;18.80;56.50;;;;;;5006636;28;19916;-69
2022/04/26 12:02:18;;;;;;;;;;;18.80;56.50;;;;;;4992813;28;20364;-69
2022/04/26 12:04:44;;;;;;;;;;;18.90;56.50;;;;;;5006272;28;19914;-69
2022/04/26 12:07:10;;;;;;;;;;;18.80;56.50;;;;;;5007083;28;19945;-70
2022/04/26 12:09:35;;;;;;;;;;;18.90;56.50;;;;;;5006204;28;19972;-69
2022/04/26 12:12:02;;;;;;;;;;;18.90;56.50;;;;;;5007226;28;19917;-71
2022/04/26 12:14:27;;;;;;;;;;;18.90;56.50;;;;;;5007463;28;19920;-70
2022/04/26 12:16:54;;;;;;;;;;;18.90;56.40;;;;;;5007393;28;19917;-71
2022/04/26 12:19:22;;;;;;;;;;;18.90;56.50;;;;;;5004191;28;19917;-70
2022/04/26 12:21:47;;;;;;;;;;;18.90;56.40;;;;;;5005849;28;19914;-71
2022/04/26 12:24:16;;;;;;;;;;;18.90;56.50;;;;;;5007079;28;19913;-69
2022/04/26 12:26:48;;;;;;;;;;;18.90;56.50;;;;;;4994455;28;19909;-71
2022/04/26 12:29:13;;;;;;;;;;;18.90;56.50;;;;;;5005003;28;20471;-71
2022/04/26 12:31:42;;;;;;;;;;;18.90;56.50;;;;;;5002529;28;19917;-69
2022/04/26 12:34:14;;;;;;;;;;;18.90;56.50;;;;;;4988769;28;19913;-70
2022/04/26 12:36:49;;;;;;;;;;;18.90;56.50;;;;;;4991536;28;19936;-71
2022/04/26 12:39:14;;;;;;;;;;;18.90;56.50;;;;;;4993634;28;20550;-70
2022/04/26 12:41:51;;;;;;;;;;;18.90;56.60;;;;;;5003488;28;19914;-71
2022/04/26 12:44:17;;;;;;;;;;;18.80;56.50;;;;;;5005563;28;19914;-72
2022/04/26 12:46:46;;;;;;;;;;;18.90;56.60;;;;;;4990335;28;19920;-68
2022/04/26 12:51:57;;;;;;;;;;;18.80;56.50;;;;;;5004521;28;19996;-69
2022/04/26 12:54:22;;;;;;;;;;;18.80;56.50;;;;;;5005125;28;19913;-69
2022/04/26 12:57:01;;;;;;;;;;;18.90;56.60;;;;;;4989261;28;19920;-69
2022/04/26 12:59:34;;;;;;;;;;;18.80;56.50;;;;;;5004069;28;20507;-68
2022/04/26 13:02:00;;;;;;;;;;;18.80;56.50;;;;;;5004771;28;20621;-68
2022/04/26 13:04:25;;;;;;;;;;;18.90;56.60;;;;;;4987765;28;19918;-69
2022/04/26 13:06:53;;;;;;;;;;;18.90;56.60;;;;;;4988067;28;19953;-69
2022/04/26 13:09:18;;;;;;;;;;;18.90;56.60;;;;;;4998887;28;19913;-69
2022/04/26 13:11:44;;;;;;;;;;;18.90;56.60;;;;;;5017018;28;19921;-70
2022/04/26 13:14:10;;;;;;;;;;;18.80;56.50;;;;;;4988110;28;19914;-70
2022/04/26 13:16:35;;;;;;;;;;;18.80;56.50;;;;;;5005723;28;19944;-69
2022/04/26 13:19:01;;;;;;;;;;;18.90;56.60;;;;;;5005179;28;19938;-70
2022/04/26 13:21:26;;;;;;;;;;;18.90;56.60;;;;;;5006199;28;20292;-70
2022/04/26 13:23:52;;;;;;;;;;;18.90;56.60;;;;;;4989958;28;20684;-70
2022/04/26 13:26:18;;;;;;;;;;;18.90;56.60;;;;;;5005628;28;19913;-69
2022/04/26 13:28:43;;;;;;;;;;;18.90;56.60;;;;;;5004219;28;19971;-70
2022/04/26 13:31:09;;;;;;;;;;;18.90;56.60;;;;;;5004504;28;20371;-69
2022/04/26 13:33:34;;;;;;;;;;;18.90;56.50;;;;;;4996924;28;20043;-69
2022/04/26 13:36:00;;;;;;;;;;;18.90;56.50;;;;;;5005630;28;19909;-69
2022/04/26 13:38:25;;;;;;;;;;;18.90;56.60;;;;;;5004009;28;20182;-69
2022/04/26 13:40:53;;;;;;;;;;;18.90;56.60;;;;;;4987334;28;20676;-70
2022/04/26 13:43:21;;;;;;;;;;;18.90;56.60;;;;;;5005160;28;19918;-68
2022/04/26 13:45:46;;;;;;;;;;;18.90;56.50;;;;;;4988137;28;19917;-69
2022/04/26 13:48:12;;;;;;;;;;;18.90;56.60;;;;;;5005564;28;20335;-71
2022/04/26 13:50:37;;;;;;;;;;;18.90;56.60;;;;;;5003713;28;20217;-68
2022/04/26 13:53:03;;;;;;;;;;;18.90;56.50;;;;;;5004604;28;19910;-68
2022/04/26 13:55:28;;;;;;;;;;;18.90;56.60;;;;;;5004952;28;19910;-69
2022/04/26 13:57:54;;;;;;;;;;;18.90;56.50;;;;;;5004744;28;20368;-72
2022/04/26 14:00:19;;;;;;;;;;;18.90;56.60;;;;;;5004631;28;19913;-69
2022/04/26 14:02:46;;;;;;;;;;;18.90;56.60;;;;;;5003766;28;19952;-70
2022/04/26 14:05:12;;;;;;;;;;;18.90;56.60;;;;;;5004829;28;19909;-71
2022/04/26 14:07:37;;;;;;;;;;;18.90;56.60;;;;;;5005180;28;20446;-68
2022/04/26 14:10:03;;;;;;;;;;;18.90;56.60;;;;;;5003712;28;19909;-70
2022/04/26 14:12:29;;;;;;;;;;;18.90;56.60;;;;;;5004816;28;19929;-70
2022/04/26 14:23:07;;;;;;;;;;;18.90;56.60;;;;;;5005067;28;19924;-70
2022/04/26 14:25:32;;;;;;;;;;;18.90;56.60;;;;;;5004824;28;19914;-69
2022/04/26 14:27:58;;;;;;;;;;;18.90;56.60;;;;;;5004484;28;19917;-69
2022/04/26 14:30:23;;;;;;;;;;;18.90;56.60;;;;;;5003834;28;20406;-70
2022/04/26 14:32:49;;;;;;;;;;;18.90;56.60;;;;;;5004564;28;19917;-68
2022/04/26 14:35:14;;;;;;;;;;;18.90;56.50;;;;;;5003967;28;19913;-70
2022/04/26 14:37:41;;;;;;;;;;;18.90;56.60;;;;;;4987047;28;19910;-68
2022/04/26 14:40:08;;;;;;;;;;;18.90;56.50;;;;;;5000293;28;19914;-69
2022/04/26 14:42:34;;;;;;;;;;;18.90;56.60;;;;;;5006489;28;19922;-71
2022/04/26 14:44:59;;;;;;;;;;;18.90;56.50;;;;;;5008003;28;19920;-70
2022/04/26 14:47:27;;;;;;;;;;;19.00;56.60;;;;;;5007953;28;20276;-70
2022/04/26 14:49:54;;;;;;;;;;;19.00;56.60;;;;;;5000783;28;19910;-69
2022/04/26 14:52:21;;;;;;;;;;;19.00;56.60;;;;;;5008313;28;20451;-69
2022/04/26 14:54:47;;;;;;;;;;;19.00;56.60;;;;;;5007813;28;19967;-70
2022/04/26 14:57:12;;;;;;;;;;;19.00;56.60;;;;;;4990996;28;19914;-69
2022/04/26 14:59:46;;;;;;;;;;;19.00;56.50;;;;;;5007153;28;19910;-71
2022/04/26 15:02:12;;;;;;;;;;;19.00;56.60;;;;;;5008146;28;19975;-70
2022/04/26 15:04:38;;;;;;;;;;;19.00;56.60;;;;;;4999138;28;19921;-70
2022/04/26 15:07:04;;;;;;;;;;;19.00;56.60;;;;;;5007339;28;19921;-70
2022/04/26 15:09:51;;;;;;;;;;;19.00;56.60;;;;;;5006542;28;19910;-70
2022/04/26 15:17:48;;;;;;;;;;;19.00;56.60;;;;;;4992239;28;20430;-69
2022/04/26 15:20:13;;;;;;;;;;;19.00;56.60;;;;;;5006847;28;19914;-68
2022/04/26 15:22:39;;;;;;;;;;;18.90;56.60;;;;;;5006039;28;19949;-69
2022/04/26 15:25:06;;;;;;;;;;;19.00;56.70;;;;;;5007357;28;19936;-69
2022/04/26 15:27:32;;;;;;;;;;;19.00;56.70;;;;;;4990369;28;19909;-68
2022/04/26 15:29:57;;;;;;;;;;;19.00;56.60;;;;;;5006915;28;19925;-69
2022/04/26 15:32:25;;;;;;;;;;;19.00;56.70;;;;;;4989005;28;20322;-69
2022/04/26 15:34:51;;;;;;;;;;;19.00;56.60;;;;;;5006913;28;20526;-70
2022/04/26 15:37:16;;;;;;;;;;;19.00;56.60;;;;;;4988742;28;19914;-69
2022/04/26 15:39:42;;;;;;;;;;;19.00;56.60;;;;;;4991959;28;19914;-69
2022/04/26 15:42:08;;;;;;;;;;;19.00;56.60;;;;;;5006297;28;20640;-69
2022/04/26 15:44:33;;;;;;;;;;;19.00;56.60;;;;;;5005527;28;19997;-70
2022/04/26 15:46:59;;;;;;;;;;;19.00;56.60;;;;;;4990053;28;19998;-68
2022/04/26 15:49:24;;;;;;;;;;;19.00;56.60;;;;;;4989006;28;19916;-68
2022/04/26 15:51:50;;;;;;;;;;;19.00;57.20;;;;;;5006519;28;19913;-69
2022/04/26 15:54:18;;;;;;;;;;;19.00;56.60;;;;;;5006012;28;19937;-69
2022/04/26 15:56:44;;;;;;;;;;;19.00;56.70;;;;;;4990104;28;19938;-70
2022/04/26 15:59:09;;;;;;;;;;;19.00;56.60;;;;;;4986569;28;19913;-68
2022/04/26 16:01:36;;;;;;;;;;;19.00;56.60;;;;;;5006778;28;19917;-64
2022/04/26 16:04:01;;;;;;;;;;;18.90;56.60;;;;;;5007425;28;20072;-68
2022/04/26 16:06:27;;;;;;;;;;;19.00;56.60;;;;;;4991915;28;20428;-68
2022/04/26 16:20:28;;;;;;;;;;;19.00;56.60;;;;;;5005501;28;20500;-69
2022/04/26 16:22:35;;;;;;;;;;;19.00;56.60;;;;;;5006504;28;20481;-70
2022/04/26 16:25:01;;;;;;;;;;;19.00;56.60;;;;;;5004988;28;19910;-68
2022/04/26 16:27:27;;;;;;;;;;;19.00;56.60;;;;;;5005818;28;20393;-69
2022/04/26 16:29:52;;;;;;;;;;;19.00;56.60;;;;;;5005562;28;19917;-70
2022/04/26 16:32:18;;;;;;;;;;;19.00;56.60;;;;;;5004606;28;19913;-68
2022/04/26 16:34:43;;;;;;;;;;;19.00;56.60;;;;;;5006974;28;19968;-68
2022/04/26 16:37:08;;;;;;;;;;;19.00;56.50;;;;;;4989433;28;19909;-69
2022/04/26 16:39:34;;;;;;;;;;;19.00;56.50;;;;;;5005354;28;19945;-68
2022/04/26 16:41:59;;;;;;;;;;;19.00;56.60;;;;;;5005822;28;19925;-69
2022/04/26 16:44:25;;;;;;;;;;;19.00;56.50;;;;;;5006673;28;19925;-69
2022/04/26 16:46:50;;;;;;;;;;;19.00;56.60;;;;;;5005725;28;19920;-69
2022/04/26 16:49:16;;;;;;;;;;;19.00;56.60;;;;;;5005573;28;20379;-68
2022/04/26 16:51:41;;;;;;;;;;;19.00;56.60;;;;;;5006169;28;19909;-69
2022/04/26 16:54:07;;;;;;;;;;;19.00;56.60;;;;;;5006085;28;19922;-69
2022/04/26 16:56:32;;;;;;;;;;;19.00;56.60;;;;;;5005905;28;19963;-68
2022/04/26 16:58:58;;;;;;;;;;;19.00;56.60;;;;;;5004828;28;20375;-70
2022/04/26 17:01:23;;;;;;;;;;;19.00;56.60;;;;;;5003536;28;19917;-70
2022/04/26 17:03:49;;;;;;;;;;;19.00;56.60;;;;;;5005514;28;20460;-68
2022/04/26 17:06:14;;;;;;;;;;;19.00;56.60;;;;;;4989415;28;19909;-69
2022/04/26 17:08:40;;;;;;;;;;;19.00;57.10;;;;;;5004615;28;19914;-70
2022/04/26 17:13:50;;;;;;;;;;;19.00;56.60;;;;;;5005696;28;20395;-71
2022/04/26 17:16:15;;;;;;;;;;;18.90;56.50;;;;;;5002561;28;19909;-68
2022/04/26 17:18:41;;;;;;;;;;;19.00;56.50;;;;;;5004260;28;20288;-68
2022/04/26 17:21:08;;;;;;;;;;;19.00;56.40;;;;;;4988667;28;19928;-69
2022/04/26 17:23:33;;;;;;;;;;;19.00;56.40;;;;;;5005512;28;19914;-67
2022/04/26 17:25:59;;;;;;;;;;;19.00;56.40;;;;;;5005746;28;20329;-66
2022/04/26 17:28:24;;;;;;;;;;;19.00;56.40;;;;;;5003634;28;19910;-69
2022/04/26 17:30:50;;;;;;;;;;;19.00;56.40;;;;;;5004485;28;19920;-69
2022/04/26 17:33:15;;;;;;;;;;;19.00;56.40;;;;;;5005630;28;19909;-69
2022/04/26 17:35:41;;;;;;;;;;;19.00;56.40;;;;;;5005522;28;19917;-69
2022/04/26 17:38:07;;;;;;;;;;;19.00;56.40;;;;;;5004444;28;19924;-65
2022/04/26 17:40:32;;;;;;;;;;;19.00;56.90;;;;;;4986310;28;19909;-68
2022/04/26 17:42:57;;;;;;;;;;;19.20;56.80;;;;;;5004273;28;20324;-70
2022/04/26 17:45:23;;;;;;;;;;;19.30;56.50;;;;;;5005330;28;19925;-71
2022/04/26 17:47:48;;;;;;;;;;;19.40;56.30;;;;;;5005975;28;19910;-69
2022/04/26 17:50:14;;;;;;;;;;;19.50;56.10;;;;;;5005269;28;19972;-68
2022/04/26 17:58:09;;;;;;;;;;;19.70;56.00;;;;;;4995340;28;20579;-70
2022/04/26 18:00:34;;;;;;;;;;;19.70;56.00;;;;;;5003598;28;19909;-67
2022/04/26 18:03:00;;;;;;;;;;;19.80;56.00;;;;;;5004567;28;19925;-68
2022/04/26 18:05:25;;;;;;;;;;;19.90;55.80;;;;;;5003236;28;19927;-64
2022/04/26 18:07:51;;;;;;;;;;;19.90;55.90;;;;;;5001251;28;19992;-68
2022/04/26 18:10:17;;;;;;;;;;;19.90;55.90;;;;;;5004454;28;19913;-70
2022/04/26 18:12:44;;;;;;;;;;;19.90;55.70;;;;;;4992144;28;21929;-68
2022/04/26 18:15:09;;;;;;;;;;;19.90;55.80;;;;;;4987434;28;19937;-68
2022/04/26 18:17:35;;;;;;;;;;;19.90;55.60;;;;;;5002732;28;19988;-65
2022/04/26 18:20:00;;;;;;;;;;;19.90;55.50;;;;;;5003802;28;19910;-68
2022/04/26 18:22:26;;;;;;;;;;;19.90;55.60;;;;;;5004141;28;19928;-68
2022/04/26 18:24:51;;;;;;;;;;;19.90;55.60;;;;;;5003833;28;19967;-68
2022/04/26 18:27:17;;;;;;;;;;;19.90;55.60;;;;;;5004059;28;20580;-68
2022/04/26 18:29:43;;;;;;;;;;;19.90;55.60;;;;;;5003442;28;19913;-65
2022/04/26 18:32:08;;;;;;;;;;;19.90;55.50;;;;;;5004189;28;19914;-68
2022/04/26 18:34:35;;;;;;;;;;;20.00;55.40;;;;;;5002264;28;19978;-67
2022/04/26 18:37:00;;;;;;;;;;;19.90;55.30;;;;;;5002050;28;19920;-67